sensor_id;sensor_type;location;lat;lon;timestamp;temperature;humidity
12438;DHT22;6283;51.330;12.374;2022-10-10T00:00:40;9.70;1.00
12438;DHT22;6283;51.330;12.374;2022-10-10T00:03:07;9.40;1.00
12438;DHT22;6283;51.330;12.374;2022-10-10T00:05:33;9.60;1.00
12438;DHT22;6283;51.330;12.374;2022-10-10T00:07:59;9.70;1.00
12438;DHT22;6283;51.330;12.374;2022-10-10T00:10:25;9.50;1.00
12438;DHT22;6283;51.330;12.374;2022-10-10T00:12:51;9.50;1.00
12438;DHT22;6283;51.330;12.374;2022-10-10T00:15:16;9.50;1.00
12438;DHT22;6283;51.330;12.374;2022-10-10T00:17:42;9.50;1.00
12438;DHT22;6283;51.330;12.374;2022-10-10T00:20:13;9.50;1.00
12438;DHT22;6283;51.330;12.374;2022-10-10T00:22:39;9.60;1.00
12438;DHT22;6283;51.330;12.374;2022-10-10T00:25:07;9.40;1.00
12438;DHT22;6283;51.330;12.374;2022-10-10T00:27:33;9.30;1.00
12438;DHT22;6283;51.330;12.374;2022-10-10T00:29:59;9.20;1.00
12438;DHT22;6283;51.330;12.374;2022-10-10T00:32:25;9.20;1.00
12438;DHT22;6283;51.330;12.374;2022-10-10T00:34:51;9.30;1.00
12438;DHT22;6283;51.330;12.374;2022-10-10T00:37:16;9.20;1.00
12438;DHT22;6283;51.330;12.374;2022-10-10T00:39:42;9.10;1.00
12438;DHT22;6283;51.330;12.374;2022-10-10T00:42:11;9.00;1.00
12438;DHT22;6283;51.330;12.374;2022-10-10T00:44:39;9.00;1.00
12438;DHT22;6283;51.330;12.374;2022-10-10T00:47:05;9.00;1.00
12438;DHT22;6283;51.330;12.374;2022-10-10T00:49:31;9.10;1.00
12438;DHT22;6283;51.330;12.374;2022-10-10T00:52:00;8.80;1.00
12438;DHT22;6283;51.330;12.374;2022-10-10T00:54:27;9.00;1.00
12438;DHT22;6283;51.330;12.374;2022-10-10T00:57:03;8.80;1.00
12438;DHT22;6283;51.330;12.374;2022-10-10T00:59:31;8.80;1.00
12438;DHT22;6283;51.330;12.374;2022-10-10T01:01:58;8.70;1.00
12438;DHT22;6283;51.330;12.374;2022-10-10T01:04:35;8.60;1.00
12438;DHT22;6283;51.330;12.374;2022-10-10T01:07:05;8.80;1.00
12438;DHT22;6283;51.330;12.374;2022-10-10T01:09:34;8.70;1.00
12438;DHT22;6283;51.330;12.374;2022-10-10T01:17:32;8.60;1.00
12438;DHT22;6283;51.330;12.374;2022-10-10T01:28:20;8.60;1.00
12438;DHT22;6283;51.330;12.374;2022-10-10T01:30:47;8.50;1.00
12438;DHT22;6283;51.330;12.374;2022-10-10T01:33:26;8.70;1.00
12438;DHT22;6283;51.330;12.374;2022-10-10T01:38:55;8.60;1.00
12438;DHT22;6283;51.330;12.374;2022-10-10T01:41:32;8.50;1.00
12438;DHT22;6283;51.330;12.374;2022-10-10T01:43:58;8.50;1.00
12438;DHT22;6283;51.330;12.374;2022-10-10T01:46:24;8.60;1.00
12438;DHT22;6283;51.330;12.374;2022-10-10T01:48:52;8.40;1.00
12438;DHT22;6283;51.330;12.374;2022-10-10T01:51:42;8.40;1.00
12438;DHT22;6283;51.330;12.374;2022-10-10T01:54:34;8.50;1.00
12438;DHT22;6283;51.330;12.374;2022-10-10T02:00:11;8.40;1.00
12438;DHT22;6283;51.330;12.374;2022-10-10T02:02:57;8.30;1.00
12438;DHT22;6283;51.330;12.374;2022-10-10T02:05:58;8.20;1.00
12438;DHT22;6283;51.330;12.374;2022-10-10T02:08:41;8.50;1.00
12438;DHT22;6283;51.330;12.374;2022-10-10T02:11:09;8.40;1.00
12438;DHT22;6283;51.330;12.374;2022-10-10T02:13:48;8.40;1.00
12438;DHT22;6283;51.330;12.374;2022-10-10T02:16:19;8.50;1.00
12438;DHT22;6283;51.330;12.374;2022-10-10T02:18:49;8.40;1.00
12438;DHT22;6283;51.330;12.374;2022-10-10T02:21:15;8.50;1.00
12438;DHT22;6283;51.330;12.374;2022-10-10T02:23:45;8.50;1.00
12438;DHT22;6283;51.330;12.374;2022-10-10T02:26:14;8.60;1.00
12438;DHT22;6283;51.330;12.374;2022-10-10T02:28:46;8.50;1.00
12438;DHT22;6283;51.330;12.374;2022-10-10T02:31:18;8.60;1.00
12438;DHT22;6283;51.330;12.374;2022-10-10T02:33:54;8.40;1.00
12438;DHT22;6283;51.330;12.374;2022-10-10T02:36:23;8.60;1.00
12438;DHT22;6283;51.330;12.374;2022-10-10T02:38:51;8.50;1.00
12438;DHT22;6283;51.330;12.374;2022-10-10T02:41:19;8.40;1.00
12438;DHT22;6283;51.330;12.374;2022-10-10T02:43:45;8.50;1.00
12438;DHT22;6283;51.330;12.374;2022-10-10T02:46:13;8.60;1.00
12438;DHT22;6283;51.330;12.374;2022-10-10T02:48:40;8.50;1.00
12438;DHT22;6283;51.330;12.374;2022-10-10T02:51:06;8.50;1.00
12438;DHT22;6283;51.330;12.374;2022-10-10T02:53:34;8.60;1.00
12438;DHT22;6283;51.330;12.374;2022-10-10T02:56:01;8.40;1.00
12438;DHT22;6283;51.330;12.374;2022-10-10T02:58:26;8.60;1.00
12438;DHT22;6283;51.330;12.374;2022-10-10T03:00:52;8.60;1.00
12438;DHT22;6283;51.330;12.374;2022-10-10T03:03:18;8.40;1.00
12438;DHT22;6283;51.330;12.374;2022-10-10T03:05:44;8.50;1.00
12438;DHT22;6283;51.330;12.374;2022-10-10T03:08:10;8.30;1.00
12438;DHT22;6283;51.330;12.374;2022-10-10T03:10:35;8.60;1.00
12438;DHT22;6283;51.330;12.374;2022-10-10T03:13:01;8.60;1.00
12438;DHT22;6283;51.330;12.374;2022-10-10T03:15:27;8.50;1.00
12438;DHT22;6283;51.330;12.374;2022-10-10T03:17:52;8.60;1.00
12438;DHT22;6283;51.330;12.374;2022-10-10T03:20:18;8.60;1.00
12438;DHT22;6283;51.330;12.374;2022-10-10T03:22:43;8.50;1.00
12438;DHT22;6283;51.330;12.374;2022-10-10T03:25:09;8.60;1.00
12438;DHT22;6283;51.330;12.374;2022-10-10T03:27:34;8.70;1.00
12438;DHT22;6283;51.330;12.374;2022-10-10T03:30:00;8.50;1.00
12438;DHT22;6283;51.330;12.374;2022-10-10T03:32:25;8.40;1.00
12438;DHT22;6283;51.330;12.374;2022-10-10T03:34:51;8.70;1.00
12438;DHT22;6283;51.330;12.374;2022-10-10T03:37:16;8.30;1.00
12438;DHT22;6283;51.330;12.374;2022-10-10T03:39:42;8.50;1.00
12438;DHT22;6283;51.330;12.374;2022-10-10T03:42:08;8.60;1.00
12438;DHT22;6283;51.330;12.374;2022-10-10T03:44:33;8.50;1.00
12438;DHT22;6283;51.330;12.374;2022-10-10T03:46:59;8.70;1.00
12438;DHT22;6283;51.330;12.374;2022-10-10T03:49:24;8.80;1.00
12438;DHT22;6283;51.330;12.374;2022-10-10T03:51:50;8.60;1.00
12438;DHT22;6283;51.330;12.374;2022-10-10T03:54:16;8.80;1.00
12438;DHT22;6283;51.330;12.374;2022-10-10T03:56:42;8.60;1.00
12438;DHT22;6283;51.330;12.374;2022-10-10T03:59:08;8.70;1.00
12438;DHT22;6283;51.330;12.374;2022-10-10T04:01:33;8.60;1.00
12438;DHT22;6283;51.330;12.374;2022-10-10T04:03:59;8.50;1.00
12438;DHT22;6283;51.330;12.374;2022-10-10T04:06:25;8.60;1.00
12438;DHT22;6283;51.330;12.374;2022-10-10T04:08:52;8.80;1.00
12438;DHT22;6283;51.330;12.374;2022-10-10T04:11:17;8.80;1.00
12438;DHT22;6283;51.330;12.374;2022-10-10T04:13:43;8.40;1.00
12438;DHT22;6283;51.330;12.374;2022-10-10T04:16:08;8.60;1.00
12438;DHT22;6283;51.330;12.374;2022-10-10T04:18:34;8.70;1.00
12438;DHT22;6283;51.330;12.374;2022-10-10T04:21:03;8.80;1.00
12438;DHT22;6283;51.330;12.374;2022-10-10T04:23:29;8.80;1.00
12438;DHT22;6283;51.330;12.374;2022-10-10T04:25:55;8.70;1.00
12438;DHT22;6283;51.330;12.374;2022-10-10T04:28:20;8.90;1.00
12438;DHT22;6283;51.330;12.374;2022-10-10T04:30:46;8.90;1.00
12438;DHT22;6283;51.330;12.374;2022-10-10T04:33:12;8.90;1.00
12438;DHT22;6283;51.330;12.374;2022-10-10T04:35:38;8.80;1.00
12438;DHT22;6283;51.330;12.374;2022-10-10T04:38:04;9.00;1.00
12438;DHT22;6283;51.330;12.374;2022-10-10T04:40:30;8.90;1.00
12438;DHT22;6283;51.330;12.374;2022-10-10T04:42:56;8.90;1.00
12438;DHT22;6283;51.330;12.374;2022-10-10T04:45:21;8.80;1.00
12438;DHT22;6283;51.330;12.374;2022-10-10T04:47:53;8.80;1.00
12438;DHT22;6283;51.330;12.374;2022-10-10T04:50:19;8.80;1.00
12438;DHT22;6283;51.330;12.374;2022-10-10T04:52:45;8.70;1.00
12438;DHT22;6283;51.330;12.374;2022-10-10T04:55:11;8.60;1.00
12438;DHT22;6283;51.330;12.374;2022-10-10T04:57:36;8.50;1.00
12438;DHT22;6283;51.330;12.374;2022-10-10T05:00:04;8.40;1.00
12438;DHT22;6283;51.330;12.374;2022-10-10T05:02:29;8.60;1.00
12438;DHT22;6283;51.330;12.374;2022-10-10T05:04:55;8.50;1.00
12438;DHT22;6283;51.330;12.374;2022-10-10T05:07:21;8.60;1.00
12438;DHT22;6283;51.330;12.374;2022-10-10T05:09:46;8.50;1.00
12438;DHT22;6283;51.330;12.374;2022-10-10T05:12:12;8.30;1.00
12438;DHT22;6283;51.330;12.374;2022-10-10T05:14:37;8.30;1.00
12438;DHT22;6283;51.330;12.374;2022-10-10T05:17:03;8.20;1.00
12438;DHT22;6283;51.330;12.374;2022-10-10T05:19:28;8.00;1.00
12438;DHT22;6283;51.330;12.374;2022-10-10T05:21:54;8.10;1.00
12438;DHT22;6283;51.330;12.374;2022-10-10T05:24:19;8.30;1.00
12438;DHT22;6283;51.330;12.374;2022-10-10T05:26:45;8.30;1.00
12438;DHT22;6283;51.330;12.374;2022-10-10T05:29:11;8.20;1.00
12438;DHT22;6283;51.330;12.374;2022-10-10T05:31:36;8.10;1.00
12438;DHT22;6283;51.330;12.374;2022-10-10T05:34:02;8.30;1.00
12438;DHT22;6283;51.330;12.374;2022-10-10T05:36:27;8.20;1.00
12438;DHT22;6283;51.330;12.374;2022-10-10T05:38:53;8.40;1.00
12438;DHT22;6283;51.330;12.374;2022-10-10T05:41:19;8.50;1.00
12438;DHT22;6283;51.330;12.374;2022-10-10T05:43:44;8.30;1.00
12438;DHT22;6283;51.330;12.374;2022-10-10T05:46:10;8.40;1.00
12438;DHT22;6283;51.330;12.374;2022-10-10T05:48:35;8.20;1.00
12438;DHT22;6283;51.330;12.374;2022-10-10T05:51:01;8.50;1.00
12438;DHT22;6283;51.330;12.374;2022-10-10T05:53:27;8.20;1.00
12438;DHT22;6283;51.330;12.374;2022-10-10T05:55:54;8.50;1.00
12438;DHT22;6283;51.330;12.374;2022-10-10T05:58:20;8.50;1.00
12438;DHT22;6283;51.330;12.374;2022-10-10T06:00:47;8.30;1.00
12438;DHT22;6283;51.330;12.374;2022-10-10T06:03:13;8.50;1.00
12438;DHT22;6283;51.330;12.374;2022-10-10T06:05:42;8.20;1.00
12438;DHT22;6283;51.330;12.374;2022-10-10T06:08:08;8.70;1.00
12438;DHT22;6283;51.330;12.374;2022-10-10T06:10:36;8.60;1.00
12438;DHT22;6283;51.330;12.374;2022-10-10T06:13:02;8.80;1.00
12438;DHT22;6283;51.330;12.374;2022-10-10T06:15:28;8.50;1.00
12438;DHT22;6283;51.330;12.374;2022-10-10T06:17:53;8.60;1.00
12438;DHT22;6283;51.330;12.374;2022-10-10T06:20:19;8.70;1.00
12438;DHT22;6283;51.330;12.374;2022-10-10T06:22:44;8.80;1.00
12438;DHT22;6283;51.330;12.374;2022-10-10T06:25:10;8.80;1.00
12438;DHT22;6283;51.330;12.374;2022-10-10T06:27:36;8.80;1.00
12438;DHT22;6283;51.330;12.374;2022-10-10T06:30:01;8.80;1.00
12438;DHT22;6283;51.330;12.374;2022-10-10T06:32:27;8.70;1.00
12438;DHT22;6283;51.330;12.374;2022-10-10T06:34:52;9.00;1.00
12438;DHT22;6283;51.330;12.374;2022-10-10T06:37:18;8.80;1.00
12438;DHT22;6283;51.330;12.374;2022-10-10T06:39:43;8.80;1.00
12438;DHT22;6283;51.330;12.374;2022-10-10T06:42:09;8.90;1.00
12438;DHT22;6283;51.330;12.374;2022-10-10T06:44:35;8.90;1.00
12438;DHT22;6283;51.330;12.374;2022-10-10T06:47:00;8.80;1.00
12438;DHT22;6283;51.330;12.374;2022-10-10T06:49:26;9.00;1.00
12438;DHT22;6283;51.330;12.374;2022-10-10T06:51:51;9.00;1.00
12438;DHT22;6283;51.330;12.374;2022-10-10T06:54:17;9.10;1.00
12438;DHT22;6283;51.330;12.374;2022-10-10T06:56:43;9.10;1.00
12438;DHT22;6283;51.330;12.374;2022-10-10T06:59:08;9.20;1.00
12438;DHT22;6283;51.330;12.374;2022-10-10T07:01:34;9.10;1.00
12438;DHT22;6283;51.330;12.374;2022-10-10T07:04:00;9.10;1.00
12438;DHT22;6283;51.330;12.374;2022-10-10T07:06:25;9.20;1.00
12438;DHT22;6283;51.330;12.374;2022-10-10T07:08:51;9.20;1.00
12438;DHT22;6283;51.330;12.374;2022-10-10T07:11:16;9.30;1.00
12438;DHT22;6283;51.330;12.374;2022-10-10T07:13:42;8.90;1.00
12438;DHT22;6283;51.330;12.374;2022-10-10T07:16:09;9.20;1.00
12438;DHT22;6283;51.330;12.374;2022-10-10T07:18:35;9.20;1.00
12438;DHT22;6283;51.330;12.374;2022-10-10T07:21:02;9.30;1.00
12438;DHT22;6283;51.330;12.374;2022-10-10T07:23:28;9.10;1.00
12438;DHT22;6283;51.330;12.374;2022-10-10T07:26:00;9.30;1.00
12438;DHT22;6283;51.330;12.374;2022-10-10T07:28:26;9.20;1.00
12438;DHT22;6283;51.330;12.374;2022-10-10T07:31:01;9.40;1.00
12438;DHT22;6283;51.330;12.374;2022-10-10T07:33:31;9.40;1.00
12438;DHT22;6283;51.330;12.374;2022-10-10T07:35:57;9.50;1.00
12438;DHT22;6283;51.330;12.374;2022-10-10T07:38:22;9.20;1.00
12438;DHT22;6283;51.330;12.374;2022-10-10T07:40:48;9.30;1.00
12438;DHT22;6283;51.330;12.374;2022-10-10T07:43:14;9.40;1.00
12438;DHT22;6283;51.330;12.374;2022-10-10T07:45:39;9.50;1.00
12438;DHT22;6283;51.330;12.374;2022-10-10T07:48:05;9.60;1.00
12438;DHT22;6283;51.330;12.374;2022-10-10T07:50:30;9.60;1.00
12438;DHT22;6283;51.330;12.374;2022-10-10T07:52:56;9.80;1.00
12438;DHT22;6283;51.330;12.374;2022-10-10T07:55:22;9.60;1.00
12438;DHT22;6283;51.330;12.374;2022-10-10T07:57:47;9.90;1.00
12438;DHT22;6283;51.330;12.374;2022-10-10T08:00:13;10.10;1.00
12438;DHT22;6283;51.330;12.374;2022-10-10T08:02:39;10.10;1.00
12438;DHT22;6283;51.330;12.374;2022-10-10T08:05:05;9.90;1.00
12438;DHT22;6283;51.330;12.374;2022-10-10T08:07:31;10.10;1.00
12438;DHT22;6283;51.330;12.374;2022-10-10T08:09:57;10.30;1.00
12438;DHT22;6283;51.330;12.374;2022-10-10T08:12:22;10.50;1.00
12438;DHT22;6283;51.330;12.374;2022-10-10T08:14:48;10.70;1.00
12438;DHT22;6283;51.330;12.374;2022-10-10T08:17:14;10.60;1.00
12438;DHT22;6283;51.330;12.374;2022-10-10T08:19:39;10.80;1.00
12438;DHT22;6283;51.330;12.374;2022-10-10T08:22:05;10.80;1.00
12438;DHT22;6283;51.330;12.374;2022-10-10T08:24:30;11.10;1.00
12438;DHT22;6283;51.330;12.374;2022-10-10T08:26:56;11.20;1.00
12438;DHT22;6283;51.330;12.374;2022-10-10T08:29:22;11.20;1.00
12438;DHT22;6283;51.330;12.374;2022-10-10T08:31:48;11.50;1.00
12438;DHT22;6283;51.330;12.374;2022-10-10T08:34:14;11.30;1.00
12438;DHT22;6283;51.330;12.374;2022-10-10T08:36:39;11.80;1.00
12438;DHT22;6283;51.330;12.374;2022-10-10T08:39:05;11.70;1.00
12438;DHT22;6283;51.330;12.374;2022-10-10T08:44:26;12.40;1.00
12438;DHT22;6283;51.330;12.374;2022-10-10T08:52:42;12.60;1.00
12438;DHT22;6283;51.330;12.374;2022-10-10T08:55:37;12.90;1.00
12438;DHT22;6283;51.330;12.374;2022-10-10T08:58:18;13.00;1.00
12438;DHT22;6283;51.330;12.374;2022-10-10T09:00:52;12.90;1.00
12438;DHT22;6283;51.330;12.374;2022-10-10T09:03:43;13.20;1.00
12438;DHT22;6283;51.330;12.374;2022-10-10T09:16:58;14.00;1.00
12438;DHT22;6283;51.330;12.374;2022-10-10T09:22:18;14.00;1.00
12438;DHT22;6283;51.330;12.374;2022-10-10T09:24:54;14.10;1.00
12438;DHT22;6283;51.330;12.374;2022-10-10T09:27:28;14.20;1.00
12438;DHT22;6283;51.330;12.374;2022-10-10T09:30:17;14.20;1.00
12438;DHT22;6283;51.330;12.374;2022-10-10T09:35:43;14.30;1.00
12438;DHT22;6283;51.330;12.374;2022-10-10T09:40:44;14.40;1.00
12438;DHT22;6283;51.330;12.374;2022-10-10T09:43:17;14.50;1.00
12438;DHT22;6283;51.330;12.374;2022-10-10T09:45:53;14.60;1.00
12438;DHT22;6283;51.330;12.374;2022-10-10T09:48:29;14.60;1.00
12438;DHT22;6283;51.330;12.374;2022-10-10T09:50:55;14.80;1.00
12438;DHT22;6283;51.330;12.374;2022-10-10T09:53:21;14.70;1.00
12438;DHT22;6283;51.330;12.374;2022-10-10T09:55:47;14.60;1.00
12438;DHT22;6283;51.330;12.374;2022-10-10T09:58:33;14.80;1.00
12438;DHT22;6283;51.330;12.374;2022-10-10T10:01:25;14.80;1.00
12438;DHT22;6283;51.330;12.374;2022-10-10T10:06:46;15.00;1.00
12438;DHT22;6283;51.330;12.374;2022-10-10T10:09:17;15.10;1.00
12438;DHT22;6283;51.330;12.374;2022-10-10T10:11:46;15.10;1.00
12438;DHT22;6283;51.330;12.374;2022-10-10T10:16:50;15.20;1.00
12438;DHT22;6283;51.330;12.374;2022-10-10T10:19:35;15.40;1.00
12438;DHT22;6283;51.330;12.374;2022-10-10T10:22:01;15.30;1.00
12438;DHT22;6283;51.330;12.374;2022-10-10T10:24:33;15.20;1.00
12438;DHT22;6283;51.330;12.374;2022-10-10T10:27:19;15.30;1.00
12438;DHT22;6283;51.330;12.374;2022-10-10T10:29:51;15.50;1.00
12438;DHT22;6283;51.330;12.374;2022-10-10T10:35:14;15.60;1.00
12438;DHT22;6283;51.330;12.374;2022-10-10T10:40:53;15.90;1.00
12438;DHT22;6283;51.330;12.374;2022-10-10T10:48:55;16.00;1.00
12438;DHT22;6283;51.330;12.374;2022-10-10T10:57:03;16.20;1.00
12438;DHT22;6283;51.330;12.374;2022-10-10T10:59:52;16.30;1.00
12438;DHT22;6283;51.330;12.374;2022-10-10T11:11:41;16.70;1.00
12438;DHT22;6283;51.330;12.374;2022-10-10T11:14:01;16.70;1.00
12438;DHT22;6283;51.330;12.374;2022-10-10T11:16:39;16.80;1.00
12438;DHT22;6283;51.330;12.374;2022-10-10T11:22:05;17.10;1.00
12438;DHT22;6283;51.330;12.374;2022-10-10T11:24:35;17.30;1.00
12438;DHT22;6283;51.330;12.374;2022-10-10T11:27:22;17.50;1.00
12438;DHT22;6283;51.330;12.374;2022-10-10T11:29:56;17.60;1.00
12438;DHT22;6283;51.330;12.374;2022-10-10T11:32:32;17.70;1.00
12438;DHT22;6283;51.330;12.374;2022-10-10T11:35:13;17.80;1.00
12438;DHT22;6283;51.330;12.374;2022-10-10T11:37:44;18.00;1.00
12438;DHT22;6283;51.330;12.374;2022-10-10T11:40:31;18.20;1.00
12438;DHT22;6283;51.330;12.374;2022-10-10T11:43:05;18.40;1.00
12438;DHT22;6283;51.330;12.374;2022-10-10T11:45:43;18.50;1.00
12438;DHT22;6283;51.330;12.374;2022-10-10T11:49:00;18.50;1.00
12438;DHT22;6283;51.330;12.374;2022-10-10T11:51:21;18.50;1.00
12438;DHT22;6283;51.330;12.374;2022-10-10T11:53:50;18.70;1.00
12438;DHT22;6283;51.330;12.374;2022-10-10T11:56:28;19.00;1.00
12438;DHT22;6283;51.330;12.374;2022-10-10T11:59:21;19.40;1.00
12438;DHT22;6283;51.330;12.374;2022-10-10T12:01:52;19.70;1.00
12438;DHT22;6283;51.330;12.374;2022-10-10T12:04:19;20.00;1.00
12438;DHT22;6283;51.330;12.374;2022-10-10T12:06:53;20.20;1.00
12438;DHT22;6283;51.330;12.374;2022-10-10T12:09:36;20.50;1.00
12438;DHT22;6283;51.330;12.374;2022-10-10T12:12:22;20.70;1.00
12438;DHT22;6283;51.330;12.374;2022-10-10T12:14:50;21.00;1.00
12438;DHT22;6283;51.330;12.374;2022-10-10T12:17:28;21.20;1.00
12438;DHT22;6283;51.330;12.374;2022-10-10T12:22:39;21.50;1.00
12438;DHT22;6283;51.330;12.374;2022-10-10T12:25:24;21.30;1.00
12438;DHT22;6283;51.330;12.374;2022-10-10T12:30:27;21.10;1.00
12438;DHT22;6283;51.330;12.374;2022-10-10T12:32:54;21.20;1.00
12438;DHT22;6283;51.330;12.374;2022-10-10T12:38:15;21.60;1.00
12438;DHT22;6283;51.330;12.374;2022-10-10T12:43:40;22.00;1.00
12438;DHT22;6283;51.330;12.374;2022-10-10T12:48:43;22.40;1.00
12438;DHT22;6283;51.330;12.374;2022-10-10T12:51:20;22.60;1.00
12438;DHT22;6283;51.330;12.374;2022-10-10T12:53:59;22.80;1.00
12438;DHT22;6283;51.330;12.374;2022-10-10T12:56:37;22.80;1.00
12438;DHT22;6283;51.330;12.374;2022-10-10T12:59:05;22.80;1.00
12438;DHT22;6283;51.330;12.374;2022-10-10T13:01:35;22.90;1.00
12438;DHT22;6283;51.330;12.374;2022-10-10T13:04:01;22.90;1.00
12438;DHT22;6283;51.330;12.374;2022-10-10T13:06:37;23.00;1.00
12438;DHT22;6283;51.330;12.374;2022-10-10T13:09:08;23.10;1.00
12438;DHT22;6283;51.330;12.374;2022-10-10T13:11:56;23.40;1.00
12438;DHT22;6283;51.330;12.374;2022-10-10T13:14:24;23.60;1.00
12438;DHT22;6283;51.330;12.374;2022-10-10T13:16:50;23.50;1.00
12438;DHT22;6283;51.330;12.374;2022-10-10T13:19:23;23.70;1.00
12438;DHT22;6283;51.330;12.374;2022-10-10T13:21:51;23.70;1.00
12438;DHT22;6283;51.330;12.374;2022-10-10T13:24:25;23.90;1.00
12438;DHT22;6283;51.330;12.374;2022-10-10T13:26:53;24.10;1.00
12438;DHT22;6283;51.330;12.374;2022-10-10T13:31:56;24.30;1.00
12438;DHT22;6283;51.330;12.374;2022-10-10T13:34:30;24.40;1.00
12438;DHT22;6283;51.330;12.374;2022-10-10T13:36:57;24.40;1.00
12438;DHT22;6283;51.330;12.374;2022-10-10T13:39:24;24.30;1.00
12438;DHT22;6283;51.330;12.374;2022-10-10T13:41:51;24.10;1.00
12438;DHT22;6283;51.330;12.374;2022-10-10T13:44:24;23.80;1.00
12438;DHT22;6283;51.330;12.374;2022-10-10T13:46:49;23.80;1.00
12438;DHT22;6283;51.330;12.374;2022-10-10T13:49:27;23.90;1.00
12438;DHT22;6283;51.330;12.374;2022-10-10T13:54:45;24.20;1.00
12438;DHT22;6283;51.330;12.374;2022-10-10T13:59:39;24.60;1.00
12438;DHT22;6283;51.330;12.374;2022-10-10T14:02:12;24.80;1.00
12438;DHT22;6283;51.330;12.374;2022-10-10T14:04:50;24.90;1.00
12438;DHT22;6283;51.330;12.374;2022-10-10T14:07:25;25.00;1.00
12438;DHT22;6283;51.330;12.374;2022-10-10T14:09:56;25.10;1.00
12438;DHT22;6283;51.330;12.374;2022-10-10T14:15:45;25.30;1.00
12438;DHT22;6283;51.330;12.374;2022-10-10T14:18:15;25.00;1.00
12438;DHT22;6283;51.330;12.374;2022-10-10T14:20:42;24.80;1.00
12438;DHT22;6283;51.330;12.374;2022-10-10T14:23:07;24.60;1.00
12438;DHT22;6283;51.330;12.374;2022-10-10T14:25:33;24.70;1.00
12438;DHT22;6283;51.330;12.374;2022-10-10T14:28:00;24.80;1.00
12438;DHT22;6283;51.330;12.374;2022-10-10T14:30:26;24.90;1.00
12438;DHT22;6283;51.330;12.374;2022-10-10T14:32:52;25.10;1.00
12438;DHT22;6283;51.330;12.374;2022-10-10T14:35:17;25.30;1.00
12438;DHT22;6283;51.330;12.374;2022-10-10T14:37:43;25.40;1.00
12438;DHT22;6283;51.330;12.374;2022-10-10T14:40:17;25.60;1.00
12438;DHT22;6283;51.330;12.374;2022-10-10T14:42:44;25.70;1.00
12438;DHT22;6283;51.330;12.374;2022-10-10T14:45:14;25.90;1.00
12438;DHT22;6283;51.330;12.374;2022-10-10T14:47:41;26.00;1.00
12438;DHT22;6283;51.330;12.374;2022-10-10T14:50:16;26.00;1.00
12438;DHT22;6283;51.330;12.374;2022-10-10T14:52:42;26.00;1.00
12438;DHT22;6283;51.330;12.374;2022-10-10T14:55:10;25.80;1.00
12438;DHT22;6283;51.330;12.374;2022-10-10T14:57:36;25.80;1.00
12438;DHT22;6283;51.330;12.374;2022-10-10T15:00:03;25.70;1.00
12438;DHT22;6283;51.330;12.374;2022-10-10T15:02:29;25.50;1.00
12438;DHT22;6283;51.330;12.374;2022-10-10T15:04:55;25.40;1.00
12438;DHT22;6283;51.330;12.374;2022-10-10T15:07:21;25.40;1.00
12438;DHT22;6283;51.330;12.374;2022-10-10T15:09:48;25.50;1.00
12438;DHT22;6283;51.330;12.374;2022-10-10T15:12:14;25.50;1.00
12438;DHT22;6283;51.330;12.374;2022-10-10T15:14:40;25.40;1.00
12438;DHT22;6283;51.330;12.374;2022-10-10T15:17:06;25.30;1.00
12438;DHT22;6283;51.330;12.374;2022-10-10T15:19:31;25.10;1.00
12438;DHT22;6283;51.330;12.374;2022-10-10T15:21:57;24.90;1.00
12438;DHT22;6283;51.330;12.374;2022-10-10T15:24:22;24.80;1.00
12438;DHT22;6283;51.330;12.374;2022-10-10T15:26:48;24.70;1.00
12438;DHT22;6283;51.330;12.374;2022-10-10T15:29:13;24.50;1.00
12438;DHT22;6283;51.330;12.374;2022-10-10T15:31:39;24.40;1.00
12438;DHT22;6283;51.330;12.374;2022-10-10T15:34:04;24.30;1.00
12438;DHT22;6283;51.330;12.374;2022-10-10T15:36:30;24.00;1.00
12438;DHT22;6283;51.330;12.374;2022-10-10T15:38:57;23.70;1.00
12438;DHT22;6283;51.330;12.374;2022-10-10T15:41:23;23.40;1.00
12438;DHT22;6283;51.330;12.374;2022-10-10T15:43:51;23.10;1.00
12438;DHT22;6283;51.330;12.374;2022-10-10T15:46:24;22.90;1.00
12438;DHT22;6283;51.330;12.374;2022-10-10T15:48:53;22.70;1.00
12438;DHT22;6283;51.330;12.374;2022-10-10T15:51:19;22.60;1.00
12438;DHT22;6283;51.330;12.374;2022-10-10T15:53:45;22.50;1.00
12438;DHT22;6283;51.330;12.374;2022-10-10T15:56:13;22.40;1.00
12438;DHT22;6283;51.330;12.374;2022-10-10T15:58:40;22.30;1.00
12438;DHT22;6283;51.330;12.374;2022-10-10T16:01:24;22.00;1.00
12438;DHT22;6283;51.330;12.374;2022-10-10T16:03:50;21.70;1.00
12438;DHT22;6283;51.330;12.374;2022-10-10T16:06:17;21.40;1.00
12438;DHT22;6283;51.330;12.374;2022-10-10T16:08:44;21.20;1.00
12438;DHT22;6283;51.330;12.374;2022-10-10T16:11:13;20.90;1.00
12438;DHT22;6283;51.330;12.374;2022-10-10T16:13:39;20.70;1.00
12438;DHT22;6283;51.330;12.374;2022-10-10T16:16:07;20.50;1.00
12438;DHT22;6283;51.330;12.374;2022-10-10T16:18:35;20.30;1.00
12438;DHT22;6283;51.330;12.374;2022-10-10T16:21:04;20.00;1.00
12438;DHT22;6283;51.330;12.374;2022-10-10T16:23:30;19.90;1.00
12438;DHT22;6283;51.330;12.374;2022-10-10T16:26:13;19.70;1.00
12438;DHT22;6283;51.330;12.374;2022-10-10T16:28:39;19.60;1.00
12438;DHT22;6283;51.330;12.374;2022-10-10T16:31:06;19.40;1.00
12438;DHT22;6283;51.330;12.374;2022-10-10T16:33:34;19.30;1.00
12438;DHT22;6283;51.330;12.374;2022-10-10T16:36:01;19.20;1.00
12438;DHT22;6283;51.330;12.374;2022-10-10T16:38:31;19.10;1.00
12438;DHT22;6283;51.330;12.374;2022-10-10T16:41:01;19.10;1.00
12438;DHT22;6283;51.330;12.374;2022-10-10T16:43:26;19.00;1.00
12438;DHT22;6283;51.330;12.374;2022-10-10T16:45:52;18.90;1.00
12438;DHT22;6283;51.330;12.374;2022-10-10T16:48:17;18.90;1.00
12438;DHT22;6283;51.330;12.374;2022-10-10T16:50:44;18.70;1.00
12438;DHT22;6283;51.330;12.374;2022-10-10T16:53:09;18.60;1.00
12438;DHT22;6283;51.330;12.374;2022-10-10T16:55:40;18.50;1.00
12438;DHT22;6283;51.330;12.374;2022-10-10T16:58:06;18.40;1.00
12438;DHT22;6283;51.330;12.374;2022-10-10T17:00:32;18.30;1.00
12438;DHT22;6283;51.330;12.374;2022-10-10T17:02:57;18.20;1.00
12438;DHT22;6283;51.330;12.374;2022-10-10T17:05:23;18.10;1.00
12438;DHT22;6283;51.330;12.374;2022-10-10T17:07:48;18.00;1.00
12438;DHT22;6283;51.330;12.374;2022-10-10T17:10:15;17.90;1.00
12438;DHT22;6283;51.330;12.374;2022-10-10T17:12:40;17.80;1.00
12438;DHT22;6283;51.330;12.374;2022-10-10T17:15:06;17.70;1.00
12438;DHT22;6283;51.330;12.374;2022-10-10T17:17:34;17.50;1.00
12438;DHT22;6283;51.330;12.374;2022-10-10T17:19:59;17.40;1.00
12438;DHT22;6283;51.330;12.374;2022-10-10T17:22:26;17.30;1.00
12438;DHT22;6283;51.330;12.374;2022-10-10T17:24:52;17.20;1.00
12438;DHT22;6283;51.330;12.374;2022-10-10T17:27:18;17.10;1.00
12438;DHT22;6283;51.330;12.374;2022-10-10T17:29:43;17.00;1.00
12438;DHT22;6283;51.330;12.374;2022-10-10T17:32:09;16.90;1.00
12438;DHT22;6283;51.330;12.374;2022-10-10T17:34:35;16.80;1.00
12438;DHT22;6283;51.330;12.374;2022-10-10T17:37:01;16.80;1.00
12438;DHT22;6283;51.330;12.374;2022-10-10T17:39:27;16.70;1.00
12438;DHT22;6283;51.330;12.374;2022-10-10T17:41:52;16.70;1.00
12438;DHT22;6283;51.330;12.374;2022-10-10T17:44:18;16.60;1.00
12438;DHT22;6283;51.330;12.374;2022-10-10T17:46:43;16.60;1.00
12438;DHT22;6283;51.330;12.374;2022-10-10T17:49:10;16.60;1.00
12438;DHT22;6283;51.330;12.374;2022-10-10T17:51:38;16.60;1.00